sensor_id;sensor_type;location;lat;lon;timestamp;P1;durP1;ratioP1;P2;durP2;ratioP2
64738;SDS011;51175;51.186;0.276;2023-07-20T00:00:14;3.47;;;1.60;;
64738;SDS011;51175;51.186;0.276;2023-07-20T00:00:45;4.43;;;2.15;;
64738;SDS011;51175;51.186;0.276;2023-07-20T00:01:16;3.30;;;2.25;;
64738;SDS011;51175;51.186;0.276;2023-07-20T00:01:46;3.53;;;1.95;;
64738;SDS011;51175;51.186;0.276;2023-07-20T00:02:17;4.03;;;1.55;;
64738;SDS011;51175;51.186;0.276;2023-07-20T00:02:50;3.92;;;2.00;;
64738;SDS011;51175;51.186;0.276;2023-07-20T00:03:20;2.85;;;1.65;;
64738;SDS011;51175;51.186;0.276;2023-07-20T00:03:55;3.67;;;2.25;;
64738;SDS011;51175;51.186;0.276;2023-07-20T00:04:25;2.70;;;1.73;;
64738;SDS011;51175;51.186;0.276;2023-07-20T00:04:55;3.53;;;1.75;;
64738;SDS011;51175;51.186;0.276;2023-07-20T00:05:26;4.10;;;2.08;;
64738;SDS011;51175;51.186;0.276;2023-07-20T00:05:56;3.25;;;1.98;;
64738;SDS011;51175;51.186;0.276;2023-07-20T00:06:27;4.50;;;2.08;;
64738;SDS011;51175;51.186;0.276;2023-07-20T00:06:58;3.40;;;1.58;;
64738;SDS011;51175;51.186;0.276;2023-07-20T00:07:30;4.25;;;1.90;;
64738;SDS011;51175;51.186;0.276;2023-07-20T00:08:01;2.83;;;1.88;;
64738;SDS011;51175;51.186;0.276;2023-07-20T00:08:32;3.22;;;2.13;;
64738;SDS011;51175;51.186;0.276;2023-07-20T00:09:02;3.63;;;1.88;;
64738;SDS011;51175;51.186;0.276;2023-07-20T00:09:32;3.40;;;1.80;;
64738;SDS011;51175;51.186;0.276;2023-07-20T00:10:03;4.72;;;2.10;;
64738;SDS011;51175;51.186;0.276;2023-07-20T00:10:34;4.10;;;2.05;;
64738;SDS011;51175;51.186;0.276;2023-07-20T00:11:04;3.85;;;1.83;;
64738;SDS011;51175;51.186;0.276;2023-07-20T00:11:37;3.60;;;2.17;;
64738;SDS011;51175;51.186;0.276;2023-07-20T00:12:09;2.55;;;2.15;;
64738;SDS011;51175;51.186;0.276;2023-07-20T00:12:40;3.42;;;2.13;;
64738;SDS011;51175;51.186;0.276;2023-07-20T00:13:10;4.32;;;1.70;;
64738;SDS011;51175;51.186;0.276;2023-07-20T00:13:41;4.50;;;1.77;;
64738;SDS011;51175;51.186;0.276;2023-07-20T01:04:55;3.63;;;2.35;;
64738;SDS011;51175;51.186;0.276;2023-07-20T01:05:30;3.70;;;1.70;;
64738;SDS011;51175;51.186;0.276;2023-07-20T01:07:26;3.60;;;1.85;;
64738;SDS011;51175;51.186;0.276;2023-07-20T01:08:09;5.30;;;2.30;;
64738;SDS011;51175;51.186;0.276;2023-07-20T01:09:03;2.70;;;1.70;;
64738;SDS011;51175;51.186;0.276;2023-07-20T01:11:09;3.80;;;1.70;;
64738;SDS011;51175;51.186;0.276;2023-07-20T01:12:43;3.63;;;1.35;;
64738;SDS011;51175;51.186;0.276;2023-07-20T01:14:05;3.67;;;1.65;;
64738;SDS011;51175;51.186;0.276;2023-07-20T01:14:37;2.75;;;1.42;;
64738;SDS011;51175;51.186;0.276;2023-07-20T01:15:07;4.53;;;1.77;;
64738;SDS011;51175;51.186;0.276;2023-07-20T01:15:38;2.72;;;1.50;;
64738;SDS011;51175;51.186;0.276;2023-07-20T01:18:45;4.35;;;1.98;;
64738;SDS011;51175;51.186;0.276;2023-07-20T01:19:15;2.42;;;1.40;;
64738;SDS011;51175;51.186;0.276;2023-07-20T01:19:48;4.75;;;1.75;;
64738;SDS011;51175;51.186;0.276;2023-07-20T01:20:19;3.03;;;1.58;;
64738;SDS011;51175;51.186;0.276;2023-07-20T01:31:27;4.28;;;1.63;;
64738;SDS011;51175;51.186;0.276;2023-07-20T01:32:03;2.63;;;1.55;;
64738;SDS011;51175;51.186;0.276;2023-07-20T01:34:18;2.10;;;1.30;;
64738;SDS011;51175;51.186;0.276;2023-07-20T01:34:52;2.05;;;1.27;;
64738;SDS011;51175;51.186;0.276;2023-07-20T01:39:16;3.53;;;1.30;;
64738;SDS011;51175;51.186;0.276;2023-07-20T01:39:47;2.17;;;1.63;;
64738;SDS011;51175;51.186;0.276;2023-07-20T01:40:20;4.85;;;1.55;;
64738;SDS011;51175;51.186;0.276;2023-07-20T01:40:55;2.17;;;1.17;;
64738;SDS011;51175;51.186;0.276;2023-07-20T01:41:26;2.45;;;1.45;;
64738;SDS011;51175;51.186;0.276;2023-07-20T01:44:53;3.10;;;1.40;;
64738;SDS011;51175;51.186;0.276;2023-07-20T01:45:26;2.28;;;1.27;;
64738;SDS011;51175;51.186;0.276;2023-07-20T01:45:59;2.38;;;1.88;;
64738;SDS011;51175;51.186;0.276;2023-07-20T01:46:32;2.53;;;1.10;;
64738;SDS011;51175;51.186;0.276;2023-07-20T01:47:02;2.03;;;1.33;;
64738;SDS011;51175;51.186;0.276;2023-07-20T01:47:35;3.13;;;1.50;;
64738;SDS011;51175;51.186;0.276;2023-07-20T01:48:08;2.67;;;1.30;;
64738;SDS011;51175;51.186;0.276;2023-07-20T01:48:39;1.77;;;1.13;;
64738;SDS011;51175;51.186;0.276;2023-07-20T01:51:56;3.60;;;1.70;;
64738;SDS011;51175;51.186;0.276;2023-07-20T01:52:29;2.30;;;1.30;;
64738;SDS011;51175;51.186;0.276;2023-07-20T01:53:00;2.78;;;1.23;;
64738;SDS011;51175;51.186;0.276;2023-07-20T01:54:48;2.08;;;1.30;;
64738;SDS011;51175;51.186;0.276;2023-07-20T02:00:09;1.60;;;1.10;;
64738;SDS011;51175;51.186;0.276;2023-07-20T02:00:42;3.40;;;1.35;;
64738;SDS011;51175;51.186;0.276;2023-07-20T02:01:15;3.25;;;1.30;;
64738;SDS011;51175;51.186;0.276;2023-07-20T02:01:55;2.13;;;1.10;;
64738;SDS011;51175;51.186;0.276;2023-07-20T02:05:19;2.03;;;1.05;;
64738;SDS011;51175;51.186;0.276;2023-07-20T02:05:49;2.85;;;1.35;;
64738;SDS011;51175;51.186;0.276;2023-07-20T02:06:20;2.78;;;1.10;;
64738;SDS011;51175;51.186;0.276;2023-07-20T02:09:40;2.08;;;1.02;;
64738;SDS011;51175;51.186;0.276;2023-07-20T02:10:11;1.65;;;0.98;;
64738;SDS011;51175;51.186;0.276;2023-07-20T02:13:34;2.85;;;1.25;;
64738;SDS011;51175;51.186;0.276;2023-07-20T02:14:05;2.25;;;1.00;;
64738;SDS011;51175;51.186;0.276;2023-07-20T02:14:35;3.38;;;1.10;;
64738;SDS011;51175;51.186;0.276;2023-07-20T02:15:06;2.03;;;1.23;;
64738;SDS011;51175;51.186;0.276;2023-07-20T02:18:36;2.85;;;1.40;;
64738;SDS011;51175;51.186;0.276;2023-07-20T02:19:09;2.05;;;1.10;;
64738;SDS011;51175;51.186;0.276;2023-07-20T02:22:34;3.88;;;1.40;;
64738;SDS011;51175;51.186;0.276;2023-07-20T02:23:04;2.33;;;1.10;;
64738;SDS011;51175;51.186;0.276;2023-07-20T02:23:35;1.30;;;0.88;;
64738;SDS011;51175;51.186;0.276;2023-07-20T02:25:53;2.20;;;1.00;;
64738;SDS011;51175;51.186;0.276;2023-07-20T02:26:23;2.10;;;1.05;;
64738;SDS011;51175;51.186;0.276;2023-07-20T02:26:53;2.80;;;1.55;;
64738;SDS011;51175;51.186;0.276;2023-07-20T02:27:27;1.65;;;0.88;;
64738;SDS011;51175;51.186;0.276;2023-07-20T02:29:24;2.33;;;1.25;;
64738;SDS011;51175;51.186;0.276;2023-07-20T02:29:58;2.05;;;1.10;;
64738;SDS011;51175;51.186;0.276;2023-07-20T02:33:28;1.80;;;1.13;;
64738;SDS011;51175;51.186;0.276;2023-07-20T02:33:59;3.17;;;1.15;;
64738;SDS011;51175;51.186;0.276;2023-07-20T02:34:29;1.95;;;1.00;;
64738;SDS011;51175;51.186;0.276;2023-07-20T02:37:53;1.45;;;0.88;;
64738;SDS011;51175;51.186;0.276;2023-07-20T02:38:23;1.40;;;0.80;;
64738;SDS011;51175;51.186;0.276;2023-07-20T02:38:54;2.08;;;0.98;;
64738;SDS011;51175;51.186;0.276;2023-07-20T02:39:28;2.33;;;0.95;;
64738;SDS011;51175;51.186;0.276;2023-07-20T02:44:10;1.27;;;0.95;;
64738;SDS011;51175;51.186;0.276;2023-07-20T02:44:41;1.95;;;1.00;;
64738;SDS011;51175;51.186;0.276;2023-07-20T02:45:11;2.75;;;0.98;;
64738;SDS011;51175;51.186;0.276;2023-07-20T02:48:01;2.25;;;0.98;;
64738;SDS011;51175;51.186;0.276;2023-07-20T02:48:34;1.85;;;1.45;;
64738;SDS011;51175;51.186;0.276;2023-07-20T02:49:07;2.05;;;1.13;;
64738;SDS011;51175;51.186;0.276;2023-07-20T02:52:06;2.40;;;1.10;;
64738;SDS011;51175;51.186;0.276;2023-07-20T02:52:37;3.08;;;0.93;;
64738;SDS011;51175;51.186;0.276;2023-07-20T02:53:11;1.13;;;0.80;;
64738;SDS011;51175;51.186;0.276;2023-07-20T02:56:37;1.70;;;0.88;;
64738;SDS011;51175;51.186;0.276;2023-07-20T02:57:08;1.50;;;1.00;;
64738;SDS011;51175;51.186;0.276;2023-07-20T02:59:05;1.77;;;0.93;;
64738;SDS011;51175;51.186;0.276;2023-07-20T03:01:06;1.85;;;1.33;;
64738;SDS011;51175;51.186;0.276;2023-07-20T03:01:39;2.42;;;1.10;;
64738;SDS011;51175;51.186;0.276;2023-07-20T03:02:12;1.42;;;0.85;;
64738;SDS011;51175;51.186;0.276;2023-07-20T03:06:44;1.13;;;0.80;;
64738;SDS011;51175;51.186;0.276;2023-07-20T03:07:14;2.72;;;1.40;;
64738;SDS011;51175;51.186;0.276;2023-07-20T03:07:45;1.75;;;0.80;;
64738;SDS011;51175;51.186;0.276;2023-07-20T03:08:16;1.85;;;0.90;;
64738;SDS011;51175;51.186;0.276;2023-07-20T03:11:39;2.17;;;1.10;;
64738;SDS011;51175;51.186;0.276;2023-07-20T03:12:10;2.05;;;1.20;;
64738;SDS011;51175;51.186;0.276;2023-07-20T03:15:40;2.13;;;1.10;;
64738;SDS011;51175;51.186;0.276;2023-07-20T03:16:11;1.23;;;1.00;;
64738;SDS011;51175;51.186;0.276;2023-07-20T03:19:03;2.42;;;1.05;;
64738;SDS011;51175;51.186;0.276;2023-07-20T03:19:34;1.10;;;0.80;;
64738;SDS011;51175;51.186;0.276;2023-07-20T03:20:05;1.92;;;1.55;;
64738;SDS011;51175;51.186;0.276;2023-07-20T03:23:13;1.73;;;0.90;;
64738;SDS011;51175;51.186;0.276;2023-07-20T03:23:45;1.58;;;1.20;;
64738;SDS011;51175;51.186;0.276;2023-07-20T03:24:16;2.97;;;1.10;;
64738;SDS011;51175;51.186;0.276;2023-07-20T03:34:32;2.00;;;0.75;;
64738;SDS011;51175;51.186;0.276;2023-07-20T03:35:02;1.45;;;0.98;;
64738;SDS011;51175;51.186;0.276;2023-07-20T03:35:33;1.55;;;1.15;;
64738;SDS011;51175;51.186;0.276;2023-07-20T03:36:04;1.95;;;1.08;;
64738;SDS011;51175;51.186;0.276;2023-07-20T03:36:35;1.85;;;0.82;;
64738;SDS011;51175;51.186;0.276;2023-07-20T03:38:32;1.50;;;1.00;;
64738;SDS011;51175;51.186;0.276;2023-07-20T03:39:04;5.00;;;1.88;;
64738;SDS011;51175;51.186;0.276;2023-07-20T03:39:35;0.98;;;0.77;;
64738;SDS011;51175;51.186;0.276;2023-07-20T03:40:08;1.48;;;1.00;;
64738;SDS011;51175;51.186;0.276;2023-07-20T03:43:27;2.63;;;0.90;;
64738;SDS011;51175;51.186;0.276;2023-07-20T03:44:03;2.90;;;1.02;;
64738;SDS011;51175;51.186;0.276;2023-07-20T03:47:30;2.95;;;0.90;;
64738;SDS011;51175;51.186;0.276;2023-07-20T03:48:00;1.10;;;0.68;;
64738;SDS011;51175;51.186;0.276;2023-07-20T03:48:30;1.42;;;0.80;;
64738;SDS011;51175;51.186;0.276;2023-07-20T03:51:32;1.45;;;0.90;;
64738;SDS011;51175;51.186;0.276;2023-07-20T03:52:02;2.38;;;1.00;;
64738;SDS011;51175;51.186;0.276;2023-07-20T03:52:33;4.00;;;2.08;;
64738;SDS011;51175;51.186;0.276;2023-07-20T03:54:33;2.15;;;0.80;;
64738;SDS011;51175;51.186;0.276;2023-07-20T03:55:04;1.65;;;0.77;;
64738;SDS011;51175;51.186;0.276;2023-07-20T03:58:07;1.67;;;1.10;;
64738;SDS011;51175;51.186;0.276;2023-07-20T03:58:38;1.80;;;0.77;;
64738;SDS011;51175;51.186;0.276;2023-07-20T03:59:11;2.47;;;1.00;;
64738;SDS011;51175;51.186;0.276;2023-07-20T04:02:34;1.20;;;0.85;;
64738;SDS011;51175;51.186;0.276;2023-07-20T04:05:45;2.13;;;1.55;;
64738;SDS011;51175;51.186;0.276;2023-07-20T04:06:16;1.60;;;0.82;;
64738;SDS011;51175;51.186;0.276;2023-07-20T04:09:40;1.58;;;0.90;;
64738;SDS011;51175;51.186;0.276;2023-07-20T04:10:17;2.35;;;0.93;;
64738;SDS011;51175;51.186;0.276;2023-07-20T04:10:48;1.30;;;0.95;;
64738;SDS011;51175;51.186;0.276;2023-07-20T04:11:18;1.70;;;0.93;;
64738;SDS011;51175;51.186;0.276;2023-07-20T04:13:34;1.58;;;0.93;;
64738;SDS011;51175;51.186;0.276;2023-07-20T04:14:05;0.73;;;0.65;;
64738;SDS011;51175;51.186;0.276;2023-07-20T04:14:35;1.75;;;0.93;;
64738;SDS011;51175;51.186;0.276;2023-07-20T04:15:06;2.28;;;0.95;;
64738;SDS011;51175;51.186;0.276;2023-07-20T04:22:16;2.08;;;1.20;;
64738;SDS011;51175;51.186;0.276;2023-07-20T04:22:46;1.50;;;0.80;;
64738;SDS011;51175;51.186;0.276;2023-07-20T04:23:17;1.90;;;0.80;;
64738;SDS011;51175;51.186;0.276;2023-07-20T04:26:31;1.27;;;0.85;;
64738;SDS011;51175;51.186;0.276;2023-07-20T04:27:02;1.75;;;0.88;;
64738;SDS011;51175;51.186;0.276;2023-07-20T04:27:35;1.40;;;0.65;;
64738;SDS011;51175;51.186;0.276;2023-07-20T04:32:32;1.98;;;0.80;;
64738;SDS011;51175;51.186;0.276;2023-07-20T04:33:03;1.90;;;1.10;;
64738;SDS011;51175;51.186;0.276;2023-07-20T04:33:34;1.95;;;1.02;;
64738;SDS011;51175;51.186;0.276;2023-07-20T04:34:07;2.15;;;1.10;;
64738;SDS011;51175;51.186;0.276;2023-07-20T04:38:25;1.23;;;0.95;;
64738;SDS011;51175;51.186;0.276;2023-07-20T04:40:35;1.83;;;0.90;;
64738;SDS011;51175;51.186;0.276;2023-07-20T04:42:33;1.70;;;0.90;;
64738;SDS011;51175;51.186;0.276;2023-07-20T04:43:21;2.67;;;1.25;;
64738;SDS011;51175;51.186;0.276;2023-07-20T04:43:51;2.47;;;1.10;;
64738;SDS011;51175;51.186;0.276;2023-07-20T04:45:52;1.23;;;0.75;;
64738;SDS011;51175;51.186;0.276;2023-07-20T04:46:22;1.38;;;1.00;;
64738;SDS011;51175;51.186;0.276;2023-07-20T04:46:52;1.50;;;0.90;;
64738;SDS011;51175;51.186;0.276;2023-07-20T04:47:23;2.60;;;1.33;;
64738;SDS011;51175;51.186;0.276;2023-07-20T04:49:38;2.00;;;1.00;;
64738;SDS011;51175;51.186;0.276;2023-07-20T04:50:09;1.67;;;0.90;;
64738;SDS011;51175;51.186;0.276;2023-07-20T04:50:40;2.05;;;1.30;;
64738;SDS011;51175;51.186;0.276;2023-07-20T04:51:11;2.70;;;1.30;;
64738;SDS011;51175;51.186;0.276;2023-07-20T04:54:31;3.20;;;1.08;;
64738;SDS011;51175;51.186;0.276;2023-07-20T04:55:02;0.73;;;0.60;;
64738;SDS011;51175;51.186;0.276;2023-07-20T04:57:53;1.35;;;0.95;;
64738;SDS011;51175;51.186;0.276;2023-07-20T04:58:26;2.38;;;1.10;;
64738;SDS011;51175;51.186;0.276;2023-07-20T05:00:29;1.60;;;1.00;;
64738;SDS011;51175;51.186;0.276;2023-07-20T05:01:03;1.83;;;1.20;;
64738;SDS011;51175;51.186;0.276;2023-07-20T05:01:41;3.28;;;1.02;;
64738;SDS011;51175;51.186;0.276;2023-07-20T05:02:13;4.38;;;1.77;;
64738;SDS011;51175;51.186;0.276;2023-07-20T05:05:39;1.73;;;1.00;;
64738;SDS011;51175;51.186;0.276;2023-07-20T05:06:10;2.53;;;1.30;;
64738;SDS011;51175;51.186;0.276;2023-07-20T05:06:43;2.03;;;1.25;;
64738;SDS011;51175;51.186;0.276;2023-07-20T05:09:59;2.45;;;1.27;;
64738;SDS011;51175;51.186;0.276;2023-07-20T05:10:30;3.03;;;1.10;;
64738;SDS011;51175;51.186;0.276;2023-07-20T05:12:27;1.65;;;0.90;;
64738;SDS011;51175;51.186;0.276;2023-07-20T05:12:58;3.00;;;0.90;;
64738;SDS011;51175;51.186;0.276;2023-07-20T05:13:29;1.40;;;0.82;;
64738;SDS011;51175;51.186;0.276;2023-07-20T05:14:02;2.20;;;1.00;;
64738;SDS011;51175;51.186;0.276;2023-07-20T05:16:59;1.35;;;1.00;;
64738;SDS011;51175;51.186;0.276;2023-07-20T05:17:29;1.85;;;0.88;;
64738;SDS011;51175;51.186;0.276;2023-07-20T05:20:42;1.75;;;1.10;;
64738;SDS011;51175;51.186;0.276;2023-07-20T05:21:13;2.60;;;1.00;;
64738;SDS011;51175;51.186;0.276;2023-07-20T05:24:39;2.17;;;1.10;;
64738;SDS011;51175;51.186;0.276;2023-07-20T05:25:10;1.67;;;1.08;;
64738;SDS011;51175;51.186;0.276;2023-07-20T05:30:03;2.35;;;1.10;;
64738;SDS011;51175;51.186;0.276;2023-07-20T05:30:35;3.40;;;1.23;;
64738;SDS011;51175;51.186;0.276;2023-07-20T05:31:06;2.47;;;1.00;;
64738;SDS011;51175;51.186;0.276;2023-07-20T05:34:06;2.55;;;0.98;;
64738;SDS011;51175;51.186;0.276;2023-07-20T05:34:36;2.25;;;1.42;;
64738;SDS011;51175;51.186;0.276;2023-07-20T05:35:07;1.52;;;0.93;;
64738;SDS011;51175;51.186;0.276;2023-07-20T05:35:38;2.58;;;1.17;;
64738;SDS011;51175;51.186;0.276;2023-07-20T05:37:35;2.30;;;1.00;;
64738;SDS011;51175;51.186;0.276;2023-07-20T05:39:41;1.70;;;0.90;;
64738;SDS011;51175;51.186;0.276;2023-07-20T05:40:12;2.28;;;0.93;;
64738;SDS011;51175;51.186;0.276;2023-07-20T05:40:45;1.65;;;1.20;;
64738;SDS011;51175;51.186;0.276;2023-07-20T05:41:15;1.25;;;0.80;;
64738;SDS011;51175;51.186;0.276;2023-07-20T05:43:18;3.67;;;1.15;;
64738;SDS011;51175;51.186;0.276;2023-07-20T05:43:49;2.75;;;1.48;;
64738;SDS011;51175;51.186;0.276;2023-07-20T05:44:19;1.85;;;1.20;;
64738;SDS011;51175;51.186;0.276;2023-07-20T05:44:49;1.67;;;1.40;;
64738;SDS011;51175;51.186;0.276;2023-07-20T05:45:22;2.78;;;1.40;;
64738;SDS011;51175;51.186;0.276;2023-07-20T05:48:46;4.07;;;1.10;;
64738;SDS011;51175;51.186;0.276;2023-07-20T05:49:16;3.83;;;1.25;;
64738;SDS011;51175;51.186;0.276;2023-07-20T05:54:42;4.68;;;1.40;;
64738;SDS011;51175;51.186;0.276;2023-07-20T05:55:16;1.85;;;0.88;;
64738;SDS011;51175;51.186;0.276;2023-07-20T05:58:39;3.13;;;1.80;;
64738;SDS011;51175;51.186;0.276;2023-07-20T06:02:46;2.88;;;1.27;;
64738;SDS011;51175;51.186;0.276;2023-07-20T06:07:11;1.80;;;1.13;;
64738;SDS011;51175;51.186;0.276;2023-07-20T06:07:42;1.92;;;1.08;;
64738;SDS011;51175;51.186;0.276;2023-07-20T06:08:12;2.95;;;1.50;;
64738;SDS011;51175;51.186;0.276;2023-07-20T06:08:44;4.53;;;1.58;;
64738;SDS011;51175;51.186;0.276;2023-07-20T06:09:14;1.83;;;1.20;;
64738;SDS011;51175;51.186;0.276;2023-07-20T06:09:44;3.03;;;1.50;;
64738;SDS011;51175;51.186;0.276;2023-07-20T06:10:15;2.42;;;1.15;;
64738;SDS011;51175;51.186;0.276;2023-07-20T06:10:49;1.45;;;1.00;;
64738;SDS011;51175;51.186;0.276;2023-07-20T06:11:21;2.33;;;1.20;;
64738;SDS011;51175;51.186;0.276;2023-07-20T06:11:52;2.30;;;1.00;;
64738;SDS011;51175;51.186;0.276;2023-07-20T06:17:39;2.92;;;1.10;;
64738;SDS011;51175;51.186;0.276;2023-07-20T06:18:10;1.90;;;0.93;;
64738;SDS011;51175;51.186;0.276;2023-07-20T06:21:34;4.95;;;1.58;;
64738;SDS011;51175;51.186;0.276;2023-07-20T06:22:05;2.03;;;1.30;;
64738;SDS011;51175;51.186;0.276;2023-07-20T06:24:24;2.05;;;0.93;;
64738;SDS011;51175;51.186;0.276;2023-07-20T06:24:57;4.60;;;1.50;;
64738;SDS011;51175;51.186;0.276;2023-07-20T06:25:36;4.53;;;1.75;;
64738;SDS011;51175;51.186;0.276;2023-07-20T06:26:07;25.77;;;3.88;;
64738;SDS011;51175;51.186;0.276;2023-07-20T06:26:40;6.10;;;1.77;;
64738;SDS011;51175;51.186;0.276;2023-07-20T06:27:11;6.28;;;2.35;;
64738;SDS011;51175;51.186;0.276;2023-07-20T06:27:42;7.75;;;1.75;;
64738;SDS011;51175;51.186;0.276;2023-07-20T06:28:13;4.28;;;1.38;;
64738;SDS011;51175;51.186;0.276;2023-07-20T06:28:44;4.13;;;1.65;;
64738;SDS011;51175;51.186;0.276;2023-07-20T06:29:14;2.88;;;1.80;;
64738;SDS011;51175;51.186;0.276;2023-07-20T06:29:44;4.13;;;1.35;;
64738;SDS011;51175;51.186;0.276;2023-07-20T06:30:15;5.65;;;1.50;;
64738;SDS011;51175;51.186;0.276;2023-07-20T06:30:45;6.68;;;1.85;;
64738;SDS011;51175;51.186;0.276;2023-07-20T06:31:16;7.57;;;1.40;;
64738;SDS011;51175;51.186;0.276;2023-07-20T06:31:46;3.67;;;1.70;;
64738;SDS011;51175;51.186;0.276;2023-07-20T06:32:17;5.90;;;1.70;;
64738;SDS011;51175;51.186;0.276;2023-07-20T06:32:47;4.70;;;1.42;;
64738;SDS011;51175;51.186;0.276;2023-07-20T06:33:18;4.03;;;1.25;;
64738;SDS011;51175;51.186;0.276;2023-07-20T06:33:48;4.35;;;1.55;;
64738;SDS011;51175;51.186;0.276;2023-07-20T06:34:19;9.35;;;1.58;;
64738;SDS011;51175;51.186;0.276;2023-07-20T06:34:52;6.13;;;1.67;;
64738;SDS011;51175;51.186;0.276;2023-07-20T06:35:23;5.70;;;1.60;;
64738;SDS011;51175;51.186;0.276;2023-07-20T06:35:53;7.93;;;1.85;;
64738;SDS011;51175;51.186;0.276;2023-07-20T06:36:24;6.72;;;2.13;;
64738;SDS011;51175;51.186;0.276;2023-07-20T06:37:03;3.40;;;1.67;;
64738;SDS011;51175;51.186;0.276;2023-07-20T06:37:34;6.47;;;1.75;;
64738;SDS011;51175;51.186;0.276;2023-07-20T06:38:05;3.35;;;1.70;;
64738;SDS011;51175;51.186;0.276;2023-07-20T06:38:35;5.13;;;1.40;;
64738;SDS011;51175;51.186;0.276;2023-07-20T06:39:06;2.25;;;1.20;;
64738;SDS011;51175;51.186;0.276;2023-07-20T06:39:36;4.68;;;2.03;;
64738;SDS011;51175;51.186;0.276;2023-07-20T06:40:07;8.52;;;2.28;;
64738;SDS011;51175;51.186;0.276;2023-07-20T06:40:39;3.92;;;1.42;;
64738;SDS011;51175;51.186;0.276;2023-07-20T06:44:02;2.97;;;1.58;;
64738;SDS011;51175;51.186;0.276;2023-07-20T06:44:33;4.50;;;1.35;;
64738;SDS011;51175;51.186;0.276;2023-07-20T06:45:03;5.63;;;1.60;;
64738;SDS011;51175;51.186;0.276;2023-07-20T06:45:34;5.22;;;2.28;;
64738;SDS011;51175;51.186;0.276;2023-07-20T06:46:07;4.53;;;1.40;;
64738;SDS011;51175;51.186;0.276;2023-07-20T06:49:37;2.92;;;1.60;;
64738;SDS011;51175;51.186;0.276;2023-07-20T06:50:07;2.40;;;1.50;;
64738;SDS011;51175;51.186;0.276;2023-07-20T06:50:39;2.80;;;1.50;;
64738;SDS011;51175;51.186;0.276;2023-07-20T06:51:11;3.30;;;1.33;;
64738;SDS011;51175;51.186;0.276;2023-07-20T06:54:16;3.42;;;2.17;;
64738;SDS011;51175;51.186;0.276;2023-07-20T06:54:46;2.95;;;1.25;;
64738;SDS011;51175;51.186;0.276;2023-07-20T06:55:16;2.70;;;1.45;;
64738;SDS011;51175;51.186;0.276;2023-07-20T07:00:37;1.85;;;1.10;;
64738;SDS011;51175;51.186;0.276;2023-07-20T07:01:08;3.63;;;1.40;;
64738;SDS011;51175;51.186;0.276;2023-07-20T07:04:00;2.53;;;1.27;;
64738;SDS011;51175;51.186;0.276;2023-07-20T07:04:31;3.22;;;1.38;;
64738;SDS011;51175;51.186;0.276;2023-07-20T07:05:01;3.25;;;1.40;;
64738;SDS011;51175;51.186;0.276;2023-07-20T07:05:35;5.00;;;1.85;;
64738;SDS011;51175;51.186;0.276;2023-07-20T07:07:51;3.33;;;1.38;;
64738;SDS011;51175;51.186;0.276;2023-07-20T07:08:21;3.00;;;1.30;;
64738;SDS011;51175;51.186;0.276;2023-07-20T07:08:52;3.90;;;1.20;;
64738;SDS011;51175;51.186;0.276;2023-07-20T07:09:22;8.88;;;1.60;;
64738;SDS011;51175;51.186;0.276;2023-07-20T07:09:52;5.70;;;2.10;;
64738;SDS011;51175;51.186;0.276;2023-07-20T07:10:23;5.15;;;1.30;;
64738;SDS011;51175;51.186;0.276;2023-07-20T07:12:20;4.70;;;1.65;;
64738;SDS011;51175;51.186;0.276;2023-07-20T07:12:50;2.60;;;1.20;;
64738;SDS011;51175;51.186;0.276;2023-07-20T07:13:23;3.22;;;1.52;;
64738;SDS011;51175;51.186;0.276;2023-07-20T07:13:56;3.17;;;1.42;;
64738;SDS011;51175;51.186;0.276;2023-07-20T07:14:27;3.80;;;1.30;;
64738;SDS011;51175;51.186;0.276;2023-07-20T07:15:00;3.70;;;1.30;;
64738;SDS011;51175;51.186;0.276;2023-07-20T07:15:30;5.65;;;1.45;;
64738;SDS011;51175;51.186;0.276;2023-07-20T07:16:01;3.50;;;1.50;;
64738;SDS011;51175;51.186;0.276;2023-07-20T07:16:31;2.80;;;1.33;;
64738;SDS011;51175;51.186;0.276;2023-07-20T07:17:01;6.03;;;2.42;;
64738;SDS011;51175;51.186;0.276;2023-07-20T07:17:32;2.25;;;1.30;;
64738;SDS011;51175;51.186;0.276;2023-07-20T07:18:06;3.10;;;1.55;;
64738;SDS011;51175;51.186;0.276;2023-07-20T07:18:36;4.40;;;1.70;;
64738;SDS011;51175;51.186;0.276;2023-07-20T07:19:06;2.17;;;1.10;;
64738;SDS011;51175;51.186;0.276;2023-07-20T07:19:37;3.80;;;1.75;;
64738;SDS011;51175;51.186;0.276;2023-07-20T07:20:08;1.83;;;1.35;;
64738;SDS011;51175;51.186;0.276;2023-07-20T07:20:39;3.45;;;1.50;;
64738;SDS011;51175;51.186;0.276;2023-07-20T07:21:09;2.53;;;1.40;;
64738;SDS011;51175;51.186;0.276;2023-07-20T07:21:39;2.88;;;1.00;;
64738;SDS011;51175;51.186;0.276;2023-07-20T07:22:16;1.80;;;1.50;;
64738;SDS011;51175;51.186;0.276;2023-07-20T07:22:46;3.05;;;1.08;;
64738;SDS011;51175;51.186;0.276;2023-07-20T07:23:17;2.60;;;1.25;;
64738;SDS011;51175;51.186;0.276;2023-07-20T07:23:48;2.08;;;1.25;;
64738;SDS011;51175;51.186;0.276;2023-07-20T07:24:19;3.08;;;1.08;;
64738;SDS011;51175;51.186;0.276;2023-07-20T07:24:49;3.63;;;1.30;;
64738;SDS011;51175;51.186;0.276;2023-07-20T07:25:20;2.63;;;1.60;;
64738;SDS011;51175;51.186;0.276;2023-07-20T07:25:50;2.65;;;1.33;;
64738;SDS011;51175;51.186;0.276;2023-07-20T07:26:21;3.80;;;1.48;;
64738;SDS011;51175;51.186;0.276;2023-07-20T07:26:51;1.33;;;1.02;;
64738;SDS011;51175;51.186;0.276;2023-07-20T07:27:21;2.85;;;1.55;;
64738;SDS011;51175;51.186;0.276;2023-07-20T07:27:52;4.93;;;2.22;;
64738;SDS011;51175;51.186;0.276;2023-07-20T07:28:23;3.47;;;1.30;;
64738;SDS011;51175;51.186;0.276;2023-07-20T07:28:53;3.72;;;1.40;;
64738;SDS011;51175;51.186;0.276;2023-07-20T07:29:24;1.88;;;1.17;;
64738;SDS011;51175;51.186;0.276;2023-07-20T07:29:54;3.10;;;1.30;;
64738;SDS011;51175;51.186;0.276;2023-07-20T07:30:26;3.10;;;1.50;;
64738;SDS011;51175;51.186;0.276;2023-07-20T07:30:56;2.42;;;1.50;;
64738;SDS011;51175;51.186;0.276;2023-07-20T07:31:28;4.95;;;1.95;;
64738;SDS011;51175;51.186;0.276;2023-07-20T07:31:59;19.15;;;2.70;;
64738;SDS011;51175;51.186;0.276;2023-07-20T07:32:29;15.35;;;3.00;;
64738;SDS011;51175;51.186;0.276;2023-07-20T07:33:00;20.50;;;3.03;;
64738;SDS011;51175;51.186;0.276;2023-07-20T07:33:30;13.15;;;3.17;;
64738;SDS011;51175;51.186;0.276;2023-07-20T07:34:00;22.92;;;2.67;;
64738;SDS011;51175;51.186;0.276;2023-07-20T07:34:31;16.52;;;2.83;;
64738;SDS011;51175;51.186;0.276;2023-07-20T07:35:04;7.15;;;2.42;;
64738;SDS011;51175;51.186;0.276;2023-07-20T07:35:35;11.35;;;2.15;;
64738;SDS011;51175;51.186;0.276;2023-07-20T07:36:06;15.25;;;2.35;;
64738;SDS011;51175;51.186;0.276;2023-07-20T07:36:37;10.35;;;2.42;;
64738;SDS011;51175;51.186;0.276;2023-07-20T07:37:07;15.60;;;2.50;;
64738;SDS011;51175;51.186;0.276;2023-07-20T07:37:37;6.55;;;1.92;;
64738;SDS011;51175;51.186;0.276;2023-07-20T07:38:08;8.30;;;1.90;;
64738;SDS011;51175;51.186;0.276;2023-07-20T07:38:38;10.07;;;2.72;;
64738;SDS011;51175;51.186;0.276;2023-07-20T07:39:09;8.00;;;1.63;;
64738;SDS011;51175;51.186;0.276;2023-07-20T07:39:40;16.55;;;2.50;;
64738;SDS011;51175;51.186;0.276;2023-07-20T07:40:10;40.80;;;2.97;;
64738;SDS011;51175;51.186;0.276;2023-07-20T07:40:41;14.90;;;3.25;;
64738;SDS011;51175;51.186;0.276;2023-07-20T07:41:12;13.52;;;2.85;;
64738;SDS011;51175;51.186;0.276;2023-07-20T07:41:44;31.90;;;4.47;;
64738;SDS011;51175;51.186;0.276;2023-07-20T07:42:14;13.48;;;3.17;;
64738;SDS011;51175;51.186;0.276;2023-07-20T07:42:44;22.45;;;3.63;;
64738;SDS011;51175;51.186;0.276;2023-07-20T07:43:15;19.45;;;3.15;;
64738;SDS011;51175;51.186;0.276;2023-07-20T07:43:45;17.25;;;2.55;;
64738;SDS011;51175;51.186;0.276;2023-07-20T07:44:16;16.52;;;3.58;;
64738;SDS011;51175;51.186;0.276;2023-07-20T07:44:46;17.45;;;2.90;;
64738;SDS011;51175;51.186;0.276;2023-07-20T07:45:16;18.77;;;3.45;;
64738;SDS011;51175;51.186;0.276;2023-07-20T07:45:47;27.85;;;3.30;;